createdAt,value
2018-08-20T00:00:53.363Z,992.70
2018-08-20T00:01:53.535Z,992.69
2018-08-20T00:02:53.664Z,992.70
2018-08-20T00:03:53.805Z,992.63
2018-08-20T00:04:53.943Z,992.70
2018-08-20T00:05:54.130Z,992.65
2018-08-20T00:06:54.272Z,992.67
2018-08-20T00:07:54.427Z,992.67
2018-08-20T00:08:54.558Z,992.71
2018-08-20T00:09:54.699Z,992.70
2018-08-20T00:10:54.843Z,992.71
2018-08-20T00:11:55.020Z,992.71
2018-08-20T00:12:55.133Z,992.69
2018-08-20T00:13:55.274Z,992.68
2018-08-20T00:14:55.412Z,992.69
2018-08-20T00:15:55.580Z,992.72
2018-08-20T00:16:55.722Z,992.69
2018-08-20T00:17:55.869Z,992.72
2018-08-20T00:18:56.009Z,992.69
2018-08-20T00:19:56.169Z,992.74
2018-08-20T00:20:56.307Z,992.67
2018-08-20T00:21:56.447Z,992.67
2018-08-20T00:22:56.589Z,992.66
2018-08-20T00:23:56.774Z,992.70
2018-08-20T00:24:56.882Z,992.69
2018-08-20T00:25:57.031Z,992.66
2018-08-20T00:26:57.168Z,992.69
2018-08-20T00:27:57.353Z,992.66
2018-08-20T00:28:57.467Z,992.65
2018-08-20T00:29:57.616Z,992.65
2018-08-20T00:30:57.773Z,992.64
2018-08-20T00:31:57.911Z,992.66
2018-08-20T00:32:58.058Z,992.66
2018-08-20T00:33:58.201Z,992.66
2018-08-20T00:34:58.340Z,992.65
2018-08-20T00:35:58.481Z,992.68
2018-08-20T00:36:58.621Z,992.65
2018-08-20T00:37:58.768Z,992.67
2018-08-20T00:38:58.899Z,992.72
2018-08-20T00:39:59.038Z,992.71
2018-08-20T00:40:59.178Z,992.70
2018-08-20T00:41:59.320Z,992.70
2018-08-20T00:42:59.464Z,992.75
2018-08-20T00:43:59.607Z,992.69
2018-08-20T00:45:00.447Z,992.73
2018-08-20T00:45:59.871Z,992.70
2018-08-20T00:47:00.004Z,992.75
2018-08-20T00:48:00.148Z,992.72
2018-08-20T00:49:00.292Z,992.71
2018-08-20T00:50:00.432Z,992.74
2018-08-20T00:51:00.578Z,992.75
2018-08-20T00:52:00.712Z,992.78
2018-08-20T00:53:00.853Z,992.75
2018-08-20T00:54:00.990Z,992.74
2018-08-20T00:55:01.132Z,992.77
2018-08-20T00:56:01.269Z,992.82
2018-08-20T00:57:01.409Z,992.78
2018-08-20T00:58:01.549Z,992.79
2018-08-20T00:59:01.689Z,992.81
2018-08-20T01:00:01.833Z,992.81
2018-08-20T01:01:01.977Z,992.82
2018-08-20T01:02:02.119Z,992.83
2018-08-20T01:03:02.260Z,992.86
2018-08-20T01:04:02.425Z,992.84
2018-08-20T01:05:02.601Z,992.85
2018-08-20T01:06:02.735Z,992.89
2018-08-20T01:07:02.877Z,992.88
2018-08-20T01:08:03.047Z,992.90
2018-08-20T01:09:03.177Z,992.84
2018-08-20T01:10:03.319Z,992.84
2018-08-20T01:11:03.457Z,992.83
2018-08-20T01:12:03.612Z,992.82
2018-08-20T01:13:03.752Z,992.85
2018-08-20T01:14:03.931Z,992.81
2018-08-20T01:15:04.049Z,992.82
2018-08-20T01:16:04.196Z,992.84
2018-08-20T01:17:04.344Z,992.84
2018-08-20T01:18:04.485Z,992.83
2018-08-20T01:19:04.628Z,992.83
2018-08-20T01:20:04.767Z,992.84
2018-08-20T01:21:04.909Z,992.84
2018-08-20T01:22:05.040Z,992.82
2018-08-20T01:23:05.179Z,992.85
2018-08-20T01:24:05.319Z,992.82
2018-08-20T01:25:05.487Z,992.80
2018-08-20T01:26:05.624Z,992.84
2018-08-20T01:27:05.765Z,992.83
2018-08-20T01:28:05.902Z,992.78
2018-08-20T01:29:06.072Z,992.84
2018-08-20T01:30:06.190Z,992.82
2018-08-20T01:31:06.327Z,992.84
2018-08-20T01:32:06.459Z,992.78
2018-08-20T01:33:06.596Z,992.83
2018-08-20T01:34:06.738Z,992.81
2018-08-20T01:35:06.877Z,992.78
2018-08-20T01:36:07.015Z,992.79
2018-08-20T01:37:07.156Z,992.79
2018-08-20T01:38:07.292Z,992.75
2018-08-20T01:39:07.432Z,992.77
2018-08-20T01:40:07.575Z,992.75
2018-08-20T01:41:07.784Z,992.77
2018-08-20T01:42:07.809Z,992.81
2018-08-20T01:43:07.951Z,992.79
2018-08-20T01:44:08.082Z,992.79
2018-08-20T01:45:08.224Z,992.79
2018-08-20T01:46:08.358Z,992.79
2018-08-20T01:47:08.503Z,992.77
2018-08-20T01:48:08.639Z,992.77
2018-08-20T01:49:08.783Z,992.81
2018-08-20T01:50:08.919Z,992.78
2018-08-20T01:51:09.064Z,992.81
2018-08-20T01:52:09.204Z,992.75
2018-08-20T01:53:09.337Z,992.77
2018-08-20T01:54:09.478Z,992.80
2018-08-20T01:55:09.615Z,992.81
2018-08-20T01:56:09.763Z,992.80
2018-08-20T01:57:09.904Z,992.84
2018-08-20T01:58:10.046Z,992.82
2018-08-20T01:59:10.190Z,992.83
2018-08-20T02:00:10.337Z,992.79
2018-08-20T02:01:10.480Z,992.79
2018-08-20T02:02:10.621Z,992.76
2018-08-20T02:03:10.746Z,992.75
2018-08-20T02:04:10.887Z,992.76
2018-08-20T02:05:11.028Z,992.75
2018-08-20T02:06:11.174Z,992.71
2018-08-20T02:07:11.313Z,992.72
2018-08-20T02:08:11.457Z,992.71
2018-08-20T02:09:11.600Z,992.69
2018-08-20T02:10:11.740Z,992.69
2018-08-20T02:11:11.877Z,992.67
2018-08-20T02:12:12.016Z,992.69
2018-08-20T02:13:12.155Z,992.69
2018-08-20T02:14:12.294Z,992.70
2018-08-20T02:15:12.438Z,992.68
2018-08-20T02:16:12.572Z,992.68
2018-08-20T02:17:12.729Z,992.68
2018-08-20T02:18:12.856Z,992.69
2018-08-20T02:19:12.992Z,992.71
2018-08-20T02:20:13.132Z,992.68
2018-08-20T02:21:13.278Z,992.68
2018-08-20T02:22:13.424Z,992.70
2018-08-20T02:23:13.566Z,992.67
2018-08-20T02:24:13.712Z,992.71
2018-08-20T02:25:13.906Z,992.64
2018-08-20T02:26:13.916Z,992.61
2018-08-20T02:27:14.057Z,992.64
2018-08-20T02:28:14.192Z,992.57
2018-08-20T02:29:14.328Z,992.58
2018-08-20T02:30:14.532Z,992.56
2018-08-20T02:31:14.545Z,992.53
2018-08-20T02:32:14.682Z,992.54
2018-08-20T02:33:14.818Z,992.53
2018-08-20T02:34:14.958Z,992.54
2018-08-20T02:35:15.100Z,992.50
2018-08-20T02:36:15.235Z,992.49
2018-08-20T02:37:15.373Z,992.43
2018-08-20T02:38:15.516Z,992.43
2018-08-20T02:39:15.662Z,992.41
2018-08-20T02:40:15.799Z,992.44
2018-08-20T02:41:15.942Z,992.44
2018-08-20T02:42:16.111Z,992.44
2018-08-20T02:43:16.265Z,992.42
2018-08-20T02:44:16.404Z,992.41
2018-08-20T02:45:16.543Z,992.37
2018-08-20T02:46:16.693Z,992.38
2018-08-20T02:47:16.838Z,992.35
2018-08-20T02:48:16.978Z,992.35
2018-08-20T02:49:17.122Z,992.35
2018-08-20T02:50:17.265Z,992.33
2018-08-20T02:51:17.410Z,992.35
2018-08-20T02:52:17.550Z,992.37
2018-08-20T02:53:17.689Z,992.34
2018-08-20T02:54:17.817Z,992.34
2018-08-20T02:55:17.973Z,992.32
2018-08-20T02:56:18.106Z,992.32
2018-08-20T02:57:18.262Z,992.29
2018-08-20T02:58:18.401Z,992.27
2018-08-20T02:59:18.557Z,992.29
2018-08-20T03:00:18.683Z,992.30
2018-08-20T03:01:18.825Z,992.29
2018-08-20T03:02:18.961Z,992.27
2018-08-20T03:03:19.098Z,992.27
2018-08-20T03:04:19.244Z,992.24
2018-08-20T03:05:19.384Z,992.24
2018-08-20T03:06:19.522Z,992.26
2018-08-20T03:07:19.663Z,992.24
2018-08-20T03:08:19.796Z,992.24
2018-08-20T03:09:19.933Z,992.25
2018-08-20T03:10:20.073Z,992.24
2018-08-20T03:11:20.212Z,992.27
2018-08-20T03:12:20.363Z,992.26
2018-08-20T03:13:20.490Z,992.26
2018-08-20T03:14:20.635Z,992.27
2018-08-20T03:15:20.774Z,992.31
2018-08-20T03:16:20.917Z,992.29
2018-08-20T03:17:21.153Z,992.32
2018-08-20T03:18:21.193Z,992.32
2018-08-20T03:19:21.328Z,992.31
2018-08-20T03:20:21.465Z,992.34
2018-08-20T03:21:21.614Z,992.34
2018-08-20T03:22:21.756Z,992.32
2018-08-20T03:23:21.899Z,992.33
2018-08-20T03:24:22.040Z,992.37
2018-08-20T03:25:22.181Z,992.32
2018-08-20T03:26:22.326Z,992.29
2018-08-20T03:27:22.459Z,992.27
2018-08-20T03:28:22.593Z,992.31
2018-08-20T03:29:22.733Z,992.28
2018-08-20T03:30:22.871Z,992.27
2018-08-20T03:31:23.008Z,992.29
2018-08-20T03:32:23.147Z,992.29
2018-08-20T03:33:23.284Z,992.27
2018-08-20T03:34:23.423Z,992.28
2018-08-20T03:35:23.565Z,992.26
2018-08-20T03:36:23.701Z,992.25
2018-08-20T03:37:23.855Z,992.27
2018-08-20T03:38:24.004Z,992.19
2018-08-20T03:39:24.139Z,992.21
2018-08-20T03:40:24.279Z,992.21
2018-08-20T03:41:24.418Z,992.22
2018-08-20T03:42:24.559Z,992.17
2018-08-20T03:43:24.701Z,992.18
2018-08-20T03:44:24.835Z,992.17
2018-08-20T03:45:24.975Z,992.20
2018-08-20T03:46:25.112Z,992.18
2018-08-20T03:47:25.264Z,992.21
2018-08-20T03:48:25.407Z,992.22
2018-08-20T03:49:25.542Z,992.23
2018-08-20T03:50:25.680Z,992.22
2018-08-20T03:51:25.817Z,992.26
2018-08-20T03:52:25.966Z,992.27
2018-08-20T03:53:26.112Z,992.28
2018-08-20T03:54:26.251Z,992.25
2018-08-20T03:55:26.390Z,992.28
2018-08-20T03:56:26.532Z,992.30
2018-08-20T03:57:26.676Z,992.28
2018-08-20T03:58:26.811Z,992.27
2018-08-20T03:59:26.950Z,992.24
2018-08-20T04:00:27.091Z,992.29
2018-08-20T04:01:27.234Z,992.23
2018-08-20T04:02:27.367Z,992.24
2018-08-20T04:03:27.504Z,992.22
2018-08-20T04:04:27.647Z,992.22
2018-08-20T04:05:27.786Z,992.20
2018-08-20T04:06:27.923Z,992.24
2018-08-20T04:07:28.059Z,992.24
2018-08-20T04:08:28.196Z,992.26
2018-08-20T04:09:28.342Z,992.26
2018-08-20T04:10:28.480Z,992.28
2018-08-20T04:11:28.613Z,992.26
2018-08-20T04:12:28.754Z,992.27
2018-08-20T04:13:28.893Z,992.30
2018-08-20T04:14:29.035Z,992.26
2018-08-20T04:15:29.189Z,992.27
2018-08-20T04:16:29.315Z,992.23
2018-08-20T04:17:29.462Z,992.22
2018-08-20T04:18:29.603Z,992.22
2018-08-20T04:19:29.756Z,992.24
2018-08-20T04:20:29.897Z,992.24
2018-08-20T04:21:30.040Z,992.24
2018-08-20T04:22:30.191Z,992.26
2018-08-20T04:23:30.333Z,992.29
2018-08-20T04:24:30.481Z,992.28
2018-08-20T04:25:30.620Z,992.26
2018-08-20T04:26:30.756Z,992.25
2018-08-20T04:27:30.900Z,992.27
2018-08-20T04:28:31.040Z,992.23
2018-08-20T04:29:31.175Z,992.28
2018-08-20T04:30:31.341Z,992.28
2018-08-20T04:31:31.460Z,992.30
2018-08-20T04:32:31.607Z,992.31
2018-08-20T04:33:31.745Z,992.30
2018-08-20T04:34:31.893Z,992.27
2018-08-20T04:35:32.028Z,992.28
2018-08-20T04:36:32.203Z,992.34
2018-08-20T04:37:32.329Z,992.29
2018-08-20T04:38:32.462Z,992.31
2018-08-20T04:39:32.599Z,992.36
2018-08-20T04:40:32.741Z,992.37
2018-08-20T04:41:32.878Z,992.35
2018-08-20T04:42:33.015Z,992.32
2018-08-20T04:43:33.168Z,992.33
2018-08-20T04:44:33.305Z,992.37
2018-08-20T04:45:33.441Z,992.41
2018-08-20T04:46:33.582Z,992.38
2018-08-20T04:47:33.718Z,992.37
2018-08-20T04:48:33.854Z,992.37
2018-08-20T04:49:33.999Z,992.40
2018-08-20T04:50:34.239Z,992.43
2018-08-20T04:51:34.345Z,992.42
2018-08-20T04:52:34.417Z,992.44
2018-08-20T04:53:34.556Z,992.46
2018-08-20T04:54:34.696Z,992.43
2018-08-20T04:55:34.837Z,992.47
2018-08-20T04:56:34.981Z,992.49
2018-08-20T04:57:35.113Z,992.47
2018-08-20T04:58:35.253Z,992.49
2018-08-20T04:59:35.398Z,992.47
2018-08-20T05:00:35.534Z,992.47
2018-08-20T05:01:35.673Z,992.48
2018-08-20T05:02:35.813Z,992.49
2018-08-20T05:03:35.950Z,992.54
2018-08-20T05:04:36.087Z,992.51
2018-08-20T05:05:36.229Z,992.56
2018-08-20T05:06:36.371Z,992.58
2018-08-20T05:07:36.509Z,992.59
2018-08-20T05:08:36.642Z,992.62
2018-08-20T05:09:36.777Z,992.61
2018-08-20T05:10:36.920Z,992.63
2018-08-20T05:11:37.063Z,992.64
2018-08-20T05:12:37.199Z,992.66
2018-08-20T05:13:37.341Z,992.70
2018-08-20T05:14:37.475Z,992.71
2018-08-20T05:15:37.625Z,992.73
2018-08-20T05:16:37.763Z,992.70
2018-08-20T05:17:37.901Z,992.76
2018-08-20T05:18:38.114Z,992.75
2018-08-20T05:19:38.130Z,992.78
2018-08-20T05:20:38.266Z,992.76
2018-08-20T05:21:38.402Z,992.79
2018-08-20T05:22:38.546Z,992.82
2018-08-20T05:23:38.685Z,992.80
2018-08-20T05:24:38.824Z,992.80
2018-08-20T05:25:38.965Z,992.83
2018-08-20T05:26:39.102Z,992.84
2018-08-20T05:27:39.245Z,992.86
2018-08-20T05:28:39.382Z,992.86
2018-08-20T05:29:39.522Z,992.89
2018-08-20T05:30:39.662Z,992.89
2018-08-20T05:31:39.808Z,992.91
2018-08-20T05:32:39.942Z,992.92
2018-08-20T05:33:40.368Z,992.90
2018-08-20T05:34:40.234Z,992.90
2018-08-20T05:35:40.372Z,992.92
2018-08-20T05:36:40.516Z,992.94
2018-08-20T05:37:40.652Z,992.93
2018-08-20T05:38:40.952Z,992.97
2018-08-20T05:39:40.964Z,992.97
2018-08-20T05:40:41.106Z,993.00
2018-08-20T05:41:41.248Z,992.99
2018-08-20T05:42:41.386Z,993.00
2018-08-20T05:43:41.528Z,993.02
2018-08-20T05:44:41.712Z,993.04
2018-08-20T05:45:41.804Z,993.04
2018-08-20T05:46:41.940Z,993.08
2018-08-20T05:47:42.092Z,993.10
2018-08-20T05:48:42.229Z,993.08
2018-08-20T05:49:42.371Z,993.09
2018-08-20T05:50:42.510Z,993.07
2018-08-20T05:51:42.646Z,993.10
2018-08-20T05:52:42.882Z,993.10
2018-08-20T05:53:42.927Z,993.10
2018-08-20T05:54:43.061Z,993.14
2018-08-20T05:55:43.199Z,993.16
2018-08-20T05:56:43.344Z,993.18
2018-08-20T05:57:43.478Z,993.19
2018-08-20T05:58:43.614Z,993.21
2018-08-20T05:59:43.762Z,993.22
2018-08-20T06:00:43.899Z,993.21
2018-08-20T06:01:44.041Z,993.23
2018-08-20T06:02:44.207Z,993.23
2018-08-20T06:03:44.365Z,993.21
2018-08-20T06:04:44.502Z,993.18
2018-08-20T06:05:44.644Z,993.18
2018-08-20T06:06:44.789Z,993.23
2018-08-20T06:07:44.951Z,993.25
2018-08-20T06:08:45.066Z,993.27
2018-08-20T06:09:45.210Z,993.26
2018-08-20T06:10:45.349Z,993.30
2018-08-20T06:11:45.483Z,993.27
2018-08-20T06:12:45.635Z,993.27
2018-08-20T06:13:45.774Z,993.28
2018-08-20T06:14:45.915Z,993.33
2018-08-20T06:15:46.052Z,993.33
2018-08-20T06:16:46.189Z,993.31
2018-08-20T06:17:46.332Z,993.32
2018-08-20T06:18:46.457Z,993.32
2018-08-20T06:19:46.609Z,993.30
2018-08-20T06:20:46.753Z,993.33
2018-08-20T06:21:46.892Z,993.33
2018-08-20T06:22:47.042Z,993.36
2018-08-20T06:23:47.173Z,993.35
2018-08-20T06:24:47.315Z,993.34
2018-08-20T06:25:47.455Z,993.40
2018-08-20T06:26:47.594Z,993.40
2018-08-20T06:27:47.733Z,993.38
2018-08-20T06:28:47.867Z,993.39
2018-08-20T06:29:48.010Z,993.40
2018-08-20T06:30:48.158Z,993.42
2018-08-20T06:31:48.298Z,993.44
2018-08-20T06:32:48.438Z,993.43
2018-08-20T06:33:48.580Z,993.46
2018-08-20T06:34:48.719Z,993.45
2018-08-20T06:35:48.924Z,993.43
2018-08-20T06:36:48.997Z,993.41
2018-08-20T06:37:49.155Z,993.45
2018-08-20T06:38:49.277Z,993.46
2018-08-20T06:39:49.420Z,993.46
2018-08-20T06:40:49.560Z,993.45
2018-08-20T06:41:49.708Z,993.46
2018-08-20T06:42:49.851Z,993.42
2018-08-20T06:43:49.992Z,993.45
2018-08-20T06:44:50.138Z,993.46
2018-08-20T06:45:50.287Z,993.44
2018-08-20T06:46:50.426Z,993.42
2018-08-20T06:47:50.567Z,993.43
2018-08-20T06:48:50.704Z,993.43
2018-08-20T06:49:50.838Z,993.41
2018-08-20T06:50:50.985Z,993.43
2018-08-20T06:51:51.118Z,993.40
2018-08-20T06:52:51.255Z,993.44
2018-08-20T06:53:51.397Z,993.41
2018-08-20T06:54:51.536Z,993.43
2018-08-20T06:55:51.685Z,993.47
2018-08-20T06:56:51.823Z,993.50
2018-08-20T06:57:51.965Z,993.46
2018-08-20T06:58:52.113Z,993.46
2018-08-20T06:59:52.251Z,993.44
2018-08-20T07:00:52.416Z,993.40
2018-08-20T07:01:52.533Z,993.42
2018-08-20T07:02:52.669Z,993.42
2018-08-20T07:03:52.807Z,993.41
2018-08-20T07:04:52.957Z,993.40
2018-08-20T07:05:53.091Z,993.36
2018-08-20T07:06:53.235Z,993.39
2018-08-20T07:07:53.376Z,993.38
2018-08-20T07:08:53.533Z,993.41
2018-08-20T07:09:56.007Z,993.42
2018-08-20T07:10:53.787Z,993.45
2018-08-20T07:11:53.974Z,993.44
2018-08-20T07:12:54.063Z,993.44
2018-08-20T07:13:54.201Z,993.45
2018-08-20T07:14:54.344Z,993.43
2018-08-20T07:15:54.484Z,993.43
2018-08-20T07:16:54.625Z,993.44
2018-08-20T07:17:54.764Z,993.43
2018-08-20T07:18:54.904Z,993.44
2018-08-20T07:19:55.044Z,993.42
2018-08-20T07:20:55.187Z,993.44
2018-08-20T07:21:55.328Z,993.43
2018-08-20T07:22:55.494Z,993.41
2018-08-20T07:23:55.767Z,993.46
2018-08-20T07:24:55.732Z,993.47
2018-08-20T07:25:55.869Z,993.47
2018-08-20T07:26:56.014Z,993.48
2018-08-20T07:27:56.156Z,993.50
2018-08-20T07:28:56.298Z,993.53
2018-08-20T07:29:56.437Z,993.56
2018-08-20T07:30:56.575Z,993.53
2018-08-20T07:31:56.714Z,993.53
2018-08-20T07:32:56.881Z,993.48
2018-08-20T07:33:56.995Z,993.49
2018-08-20T07:34:57.130Z,993.47
2018-08-20T07:35:57.276Z,993.46
2018-08-20T07:36:57.413Z,993.46
2018-08-20T07:37:57.556Z,993.48
2018-08-20T07:38:57.694Z,993.44
2018-08-20T07:39:57.916Z,993.46
2018-08-20T07:40:57.928Z,993.47
2018-08-20T07:41:58.071Z,993.52
2018-08-20T07:42:58.210Z,993.52
2018-08-20T07:43:58.353Z,993.54
2018-08-20T07:44:58.484Z,993.56
2018-08-20T07:45:58.617Z,993.53
2018-08-20T07:46:58.759Z,993.55
2018-08-20T07:47:58.900Z,993.57
2018-08-20T07:48:59.047Z,993.56
2018-08-20T07:49:59.191Z,993.56
2018-08-20T07:50:59.372Z,993.54
2018-08-20T07:51:59.472Z,993.60
2018-08-20T07:52:59.612Z,993.56
2018-08-20T07:53:59.752Z,993.56
2018-08-20T07:54:59.893Z,993.52
2018-08-20T07:56:00.036Z,993.56
2018-08-20T07:57:00.303Z,993.53
2018-08-20T07:58:00.327Z,993.51
2018-08-20T07:59:00.731Z,993.55
2018-08-20T08:00:00.615Z,993.52
2018-08-20T08:01:00.764Z,993.52
2018-08-20T08:02:00.906Z,993.57
2018-08-20T08:03:01.050Z,993.58
2018-08-20T08:04:01.418Z,993.58
2018-08-20T08:05:01.312Z,993.55
2018-08-20T08:06:01.455Z,993.57
2018-08-20T08:07:01.593Z,993.57
2018-08-20T08:08:01.734Z,993.58
2018-08-20T08:09:01.874Z,993.59
2018-08-20T08:10:02.012Z,993.58
2018-08-20T08:11:02.159Z,993.57
2018-08-20T08:12:02.297Z,993.56
2018-08-20T08:13:02.443Z,993.56
2018-08-20T08:14:02.606Z,993.58
2018-08-20T08:15:02.725Z,993.61
2018-08-20T08:16:02.867Z,993.60
2018-08-20T08:17:03.008Z,993.64
2018-08-20T08:18:03.147Z,993.62
2018-08-20T08:19:03.285Z,993.62
2018-08-20T08:20:03.422Z,993.65
2018-08-20T08:21:03.566Z,993.65
2018-08-20T08:22:03.707Z,993.67
2018-08-20T08:23:03.849Z,993.65
2018-08-20T08:24:04.001Z,993.68
2018-08-20T08:25:04.145Z,993.71
2018-08-20T08:26:04.283Z,993.73
2018-08-20T08:27:05.074Z,993.73
2018-08-20T08:28:04.618Z,993.74
2018-08-20T08:29:04.759Z,993.71
2018-08-20T08:30:04.900Z,993.71
2018-08-20T08:31:05.044Z,993.72
2018-08-20T08:32:05.178Z,993.71
2018-08-20T08:33:12.476Z,993.73
2018-08-20T08:34:05.546Z,993.75
2018-08-20T08:35:26.635Z,993.74
2018-08-20T08:36:05.680Z,993.72
2018-08-20T08:37:05.804Z,993.70
2018-08-20T08:38:06.882Z,993.73
2018-08-20T08:39:06.137Z,993.71
2018-08-20T08:40:06.293Z,993.70
2018-08-20T08:41:13.354Z,993.68
2018-08-20T08:42:06.594Z,993.69
2018-08-20T08:43:06.728Z,993.68
2018-08-20T08:44:06.872Z,993.71
2018-08-20T08:45:07.020Z,993.72
2018-08-20T08:46:07.166Z,993.71
2018-08-20T08:47:07.300Z,993.72
2018-08-20T08:48:07.445Z,993.68
2018-08-20T08:49:07.596Z,993.67
2018-08-20T08:50:07.732Z,993.67
2018-08-20T08:51:07.879Z,993.71
2018-08-20T08:52:08.021Z,993.67
2018-08-20T08:53:08.168Z,993.71
2018-08-20T08:54:08.308Z,993.70
2018-08-20T08:55:08.452Z,993.70
2018-08-20T08:56:08.590Z,993.69
2018-08-20T08:57:08.735Z,993.67
2018-08-20T08:58:08.878Z,993.70
2018-08-20T08:59:09.025Z,993.72
2018-08-20T09:00:09.169Z,993.69
2018-08-20T09:01:09.311Z,993.75
2018-08-20T09:02:10.484Z,993.69
2018-08-20T09:03:09.665Z,993.70
2018-08-20T09:04:09.810Z,993.72
2018-08-20T09:05:09.956Z,993.76
2018-08-20T09:06:12.015Z,993.75
2018-08-20T09:07:10.325Z,993.75
2018-08-20T09:08:10.460Z,993.76
2018-08-20T09:09:10.607Z,993.78
2018-08-20T09:10:10.743Z,993.78
2018-08-20T09:11:10.888Z,993.78
2018-08-20T09:12:11.034Z,993.73
2018-08-20T09:13:11.180Z,993.74
2018-08-20T09:14:11.318Z,993.76
2018-08-20T09:15:11.462Z,993.75
2018-08-20T09:16:11.599Z,993.78
2018-08-20T09:17:11.741Z,993.76
2018-08-20T09:18:11.881Z,993.75
2018-08-20T09:19:12.024Z,993.78
2018-08-20T09:20:12.165Z,993.76
2018-08-20T09:21:12.303Z,993.71
2018-08-20T09:22:12.446Z,993.73
2018-08-20T09:23:12.585Z,993.71
2018-08-20T09:24:12.741Z,993.73
2018-08-20T09:25:12.888Z,993.71
2018-08-20T09:26:13.028Z,993.73
2018-08-20T09:27:13.168Z,993.74
2018-08-20T09:28:13.313Z,993.72
2018-08-20T09:29:13.452Z,993.73
2018-08-20T09:30:13.599Z,993.74
2018-08-20T09:31:13.742Z,993.74
2018-08-20T09:32:13.909Z,993.75
2018-08-20T09:33:14.029Z,993.71
2018-08-20T09:34:14.165Z,993.72
2018-08-20T09:35:14.304Z,993.71
2018-08-20T09:36:14.446Z,993.71
2018-08-20T09:37:14.593Z,993.71
2018-08-20T09:38:14.789Z,993.74
2018-08-20T09:39:14.879Z,993.74
2018-08-20T09:40:15.022Z,993.70
2018-08-20T09:41:15.164Z,993.75
2018-08-20T09:42:15.304Z,993.69
2018-08-20T09:43:15.443Z,993.68
2018-08-20T09:44:15.582Z,993.70
2018-08-20T09:45:15.733Z,993.68
2018-08-20T09:46:15.875Z,993.69
2018-08-20T09:47:16.013Z,993.64
2018-08-20T09:48:16.153Z,993.67
2018-08-20T09:49:16.298Z,993.67
2018-08-20T09:50:16.439Z,993.66
2018-08-20T09:51:16.582Z,993.68
2018-08-20T09:52:16.723Z,993.66
2018-08-20T09:53:16.901Z,993.68
2018-08-20T09:54:17.004Z,993.64
2018-08-20T09:55:17.142Z,993.68
2018-08-20T09:56:17.286Z,993.68
2018-08-20T09:57:17.432Z,993.66
2018-08-20T09:58:17.618Z,993.67
2018-08-20T09:59:17.760Z,993.70
2018-08-20T10:00:17.898Z,993.64
2018-08-20T10:01:18.048Z,993.66
2018-08-20T10:02:18.190Z,993.63
2018-08-20T10:03:18.333Z,993.66
2018-08-20T10:04:18.474Z,993.62
2018-08-20T10:05:18.614Z,993.60
2018-08-20T10:06:18.760Z,993.63
2018-08-20T10:07:18.906Z,993.62
2018-08-20T10:08:19.042Z,993.64
2018-08-20T10:09:19.181Z,993.63
2018-08-20T10:10:19.326Z,993.63
2018-08-20T10:11:19.464Z,993.66
2018-08-20T10:12:19.605Z,993.68
2018-08-20T10:13:19.752Z,993.68
2018-08-20T10:14:19.893Z,993.65
2018-08-20T10:15:20.038Z,993.64
2018-08-20T10:16:20.188Z,993.64
2018-08-20T10:17:20.371Z,993.65
2018-08-20T10:18:20.567Z,993.61
2018-08-20T10:19:20.659Z,993.60
2018-08-20T10:20:20.796Z,993.60
2018-08-20T10:21:20.951Z,993.59
2018-08-20T10:22:21.093Z,993.54
2018-08-20T10:23:21.243Z,993.59
2018-08-20T10:24:21.381Z,993.54
2018-08-20T10:25:21.524Z,993.52
2018-08-20T10:26:21.669Z,993.57
2018-08-20T10:27:21.817Z,993.53
2018-08-20T10:28:21.962Z,993.52
2018-08-20T10:29:22.139Z,993.52
2018-08-20T10:30:22.284Z,993.52
2018-08-20T10:31:22.430Z,993.51
2018-08-20T10:32:22.565Z,993.49
2018-08-20T10:33:22.711Z,993.49
2018-08-20T10:34:22.852Z,993.50
2018-08-20T10:35:22.992Z,993.50
2018-08-20T10:36:23.135Z,993.51
2018-08-20T10:37:23.286Z,993.48
2018-08-20T10:38:23.424Z,993.44
2018-08-20T10:39:23.561Z,993.47
2018-08-20T10:40:23.704Z,993.42
2018-08-20T10:41:23.910Z,993.44
2018-08-20T10:42:23.927Z,993.47
2018-08-20T10:43:24.069Z,993.44
2018-08-20T10:44:24.211Z,993.39
2018-08-20T10:45:24.354Z,993.41
2018-08-20T10:46:24.497Z,993.42
2018-08-20T10:47:24.642Z,993.41
2018-08-20T10:48:24.785Z,993.42
2018-08-20T10:49:24.980Z,993.41
2018-08-20T10:50:25.078Z,993.38
2018-08-20T10:51:25.230Z,993.39
2018-08-20T10:52:25.385Z,993.37
2018-08-20T10:53:25.530Z,993.37
2018-08-20T10:54:25.671Z,993.36
2018-08-20T10:55:25.810Z,993.42
2018-08-20T10:56:25.979Z,993.41
2018-08-20T10:57:26.097Z,993.37
2018-08-20T10:58:26.250Z,993.39
2018-08-20T10:59:26.400Z,993.41
2018-08-20T11:00:26.540Z,993.39
2018-08-20T11:01:26.681Z,993.38
2018-08-20T11:02:26.822Z,993.37
2018-08-20T11:03:26.966Z,993.39
2018-08-20T11:04:27.107Z,993.39
2018-08-20T11:05:27.253Z,993.37
2018-08-20T11:06:27.392Z,993.34
2018-08-20T11:07:27.535Z,993.35
2018-08-20T11:08:27.679Z,993.36
2018-08-20T11:09:27.826Z,993.35
2018-08-20T11:10:27.974Z,993.30
2018-08-20T11:11:28.114Z,993.32
2018-08-20T11:12:28.266Z,993.34
2018-08-20T11:13:28.406Z,993.31
2018-08-20T11:14:28.543Z,993.29
2018-08-20T11:15:28.695Z,993.26
2018-08-20T11:16:28.839Z,993.24
2018-08-20T11:17:28.992Z,993.24
2018-08-20T11:18:29.237Z,993.26
2018-08-20T11:19:29.291Z,993.30
2018-08-20T11:20:29.439Z,993.30
2018-08-20T11:21:29.586Z,993.31
2018-08-20T11:22:29.732Z,993.29
2018-08-20T11:23:29.882Z,993.30
2018-08-20T11:24:30.033Z,993.30
2018-08-20T11:25:30.180Z,993.26
2018-08-20T11:26:30.318Z,993.27
2018-08-20T11:27:30.512Z,993.28
2018-08-20T11:28:30.608Z,993.29
2018-08-20T11:29:30.748Z,993.27
2018-08-20T11:30:30.887Z,993.27
2018-08-20T11:31:31.035Z,993.34
2018-08-20T11:32:31.178Z,993.47
2018-08-20T11:33:31.327Z,993.24
2018-08-20T11:34:31.471Z,993.53
2018-08-20T11:35:31.609Z,993.22
2018-08-20T11:36:31.808Z,993.25
2018-08-20T11:37:31.897Z,993.24
2018-08-20T11:38:32.044Z,993.25
2018-08-20T11:39:32.237Z,993.28
2018-08-20T11:40:32.331Z,993.26
2018-08-20T11:41:32.483Z,993.33
2018-08-20T11:42:32.622Z,993.38
2018-08-20T11:43:32.761Z,993.28
2018-08-20T11:44:32.909Z,993.24
2018-08-20T11:45:33.048Z,993.21
2018-08-20T11:46:33.198Z,993.16
2018-08-20T11:47:33.346Z,993.19
2018-08-20T11:48:33.489Z,993.22
2018-08-20T11:49:33.633Z,993.24
2018-08-20T11:50:33.774Z,993.19
2018-08-20T11:51:33.914Z,993.26
2018-08-20T11:52:34.050Z,993.24
2018-08-20T11:53:34.195Z,993.25
2018-08-20T11:54:34.341Z,993.25
2018-08-20T11:55:34.483Z,993.16
2018-08-20T11:56:34.625Z,993.13
2018-08-20T11:57:34.760Z,993.15
2018-08-20T11:58:34.920Z,993.16
2018-08-20T11:59:35.068Z,993.17
2018-08-20T12:00:35.213Z,993.17
2018-08-20T12:01:35.356Z,993.20
2018-08-20T12:02:35.503Z,993.15
2018-08-20T12:03:35.654Z,993.16
2018-08-20T12:04:35.796Z,993.18
2018-08-20T12:05:35.935Z,993.18
2018-08-20T12:06:36.081Z,993.15
2018-08-20T12:07:36.278Z,993.19
2018-08-20T12:08:36.424Z,993.15
2018-08-20T12:09:36.563Z,993.17
2018-08-20T12:10:36.701Z,993.14
2018-08-20T12:11:36.859Z,993.20
2018-08-20T12:12:37.011Z,993.16
2018-08-20T12:13:37.161Z,993.15
2018-08-20T12:14:37.304Z,993.15
2018-08-20T12:15:37.449Z,993.10
2018-08-20T12:16:37.591Z,993.12
2018-08-20T12:17:37.739Z,993.13
2018-08-20T12:18:37.876Z,993.15
2018-08-20T12:19:38.027Z,993.14
2018-08-20T12:20:38.170Z,993.16
2018-08-20T12:21:38.318Z,993.16
2018-08-20T12:22:38.458Z,993.15
2018-08-20T12:23:38.610Z,993.21
2018-08-20T12:24:38.752Z,993.17
2018-08-20T12:25:38.937Z,993.22
2018-08-20T12:26:39.112Z,993.26
2018-08-20T12:27:39.105Z,993.23
2018-08-20T12:28:39.313Z,993.22
2018-08-20T12:29:39.442Z,993.22
2018-08-20T12:30:39.582Z,993.22